createdAt,value
2022-11-03T00:02:09.247Z,4.22
2022-11-03T00:04:37.422Z,4.38
2022-11-03T00:07:05.716Z,4.03
2022-11-03T00:09:33.691Z,4.55
2022-11-03T00:12:05.347Z,4.95
2022-11-03T00:14:34.911Z,4.05
2022-11-03T00:17:02.926Z,4.57
2022-11-03T00:19:31.062Z,4.30
2022-11-03T00:21:59.436Z,3.65
2022-11-03T00:24:27.606Z,4.40
2022-11-03T00:26:55.802Z,4.13
2022-11-03T00:29:24.989Z,3.67
2022-11-03T00:31:54.527Z,5.43
2022-11-03T00:34:25.426Z,5.43
2022-11-03T00:36:53.592Z,3.78
2022-11-03T00:39:21.642Z,3.72
2022-11-03T00:41:49.783Z,4.15
2022-11-03T00:44:17.964Z,3.60
2022-11-03T00:46:45.959Z,4.00
2022-11-03T00:49:15.647Z,3.45
2022-11-03T00:51:43.671Z,6.00
2022-11-03T00:54:11.762Z,4.15
2022-11-03T00:56:41.724Z,4.30
2022-11-03T00:59:11.099Z,4.30
2022-11-03T01:01:45.781Z,4.90
2022-11-03T01:04:35.187Z,4.97
2022-11-03T01:07:05.692Z,3.85
2022-11-03T01:09:37.860Z,5.88
2022-11-03T01:12:07.385Z,4.20
2022-11-03T01:14:37.958Z,4.18
2022-11-03T01:17:07.669Z,4.15
2022-11-03T01:19:37.675Z,4.07
2022-11-03T01:22:09.557Z,4.75
2022-11-03T01:24:39.965Z,5.43
2022-11-03T01:27:08.292Z,4.30
2022-11-03T01:29:54.604Z,5.15
2022-11-03T01:32:22.694Z,4.88
2022-11-03T01:34:52.178Z,4.47
2022-11-03T01:37:20.182Z,5.40
2022-11-03T01:39:48.382Z,5.05
2022-11-03T01:42:16.391Z,4.88
2022-11-03T01:44:48.390Z,4.30
2022-11-03T01:47:28.741Z,5.30
2022-11-03T01:50:04.296Z,4.20
2022-11-03T01:52:37.809Z,5.00
2022-11-03T01:55:10.475Z,6.57
2022-11-03T01:57:41.708Z,4.70
2022-11-03T02:00:11.179Z,4.80
2022-11-03T02:02:44.080Z,5.40
2022-11-03T02:05:16.352Z,5.18
2022-11-03T02:07:49.493Z,4.75
2022-11-03T02:10:18.801Z,5.05
2022-11-03T02:12:47.363Z,3.95
2022-11-03T02:15:19.811Z,4.50
2022-11-03T02:17:49.893Z,4.68
2022-11-03T02:20:22.257Z,4.07
2022-11-03T02:23:15.197Z,4.35
2022-11-03T02:25:47.020Z,4.47
2022-11-03T02:28:17.414Z,4.45
2022-11-03T02:30:49.131Z,4.07
2022-11-03T02:33:30.215Z,5.35
2022-11-03T02:36:04.630Z,3.72
2022-11-03T02:38:34.574Z,4.78
2022-11-03T02:41:13.906Z,3.95
2022-11-03T02:43:42.999Z,4.07
2022-11-03T02:46:13.513Z,4.07
2022-11-03T02:48:41.655Z,4.07
2022-11-03T02:51:09.895Z,4.75
2022-11-03T02:53:43.932Z,4.22
2022-11-03T02:56:19.250Z,4.55
2022-11-03T02:58:56.013Z,4.43
2022-11-03T03:01:32.846Z,4.05
2022-11-03T03:04:04.954Z,4.55
2022-11-03T03:06:37.962Z,3.97
2022-11-03T03:09:10.345Z,3.63
2022-11-03T03:11:44.777Z,3.40
2022-11-03T03:14:16.442Z,4.07
2022-11-03T03:16:52.909Z,3.90
2022-11-03T03:19:31.771Z,4.15
2022-11-03T03:22:11.973Z,4.00
2022-11-03T03:24:46.818Z,4.28
2022-11-03T03:27:19.637Z,4.03
2022-11-03T03:29:51.647Z,4.38
2022-11-03T03:32:23.308Z,5.30
2022-11-03T03:34:53.359Z,4.88
2022-11-03T03:37:24.197Z,4.88
2022-11-03T03:39:57.148Z,4.45
2022-11-03T03:42:29.918Z,3.80
2022-11-03T03:44:59.590Z,4.05
2022-11-03T03:47:30.750Z,3.95
2022-11-03T03:49:59.394Z,4.25
2022-11-03T03:52:28.193Z,4.07
2022-11-03T03:54:57.306Z,3.97
2022-11-03T03:57:28.889Z,3.75
2022-11-03T03:59:57.563Z,3.55
2022-11-03T04:02:25.810Z,3.78
2022-11-03T04:05:12.575Z,3.25
2022-11-03T04:07:49.530Z,3.83
2022-11-03T04:10:18.655Z,3.38
2022-11-03T04:13:05.832Z,3.75
2022-11-03T04:15:51.741Z,3.63
2022-11-03T04:18:39.854Z,3.10
2022-11-03T04:21:28.629Z,4.22
2022-11-03T04:23:56.732Z,3.58
2022-11-03T04:26:25.307Z,3.55
2022-11-03T04:28:55.490Z,3.58
2022-11-03T04:31:23.952Z,4.78
2022-11-03T04:33:52.346Z,4.10
2022-11-03T04:36:21.816Z,5.55
2022-11-03T04:38:50.701Z,5.22
2022-11-03T04:41:22.152Z,5.43
2022-11-03T04:43:51.626Z,5.07
2022-11-03T04:46:26.025Z,4.88
2022-11-03T04:48:54.698Z,4.50
2022-11-03T04:51:25.764Z,5.45
2022-11-03T04:53:56.425Z,5.32
2022-11-03T04:56:25.986Z,5.35
2022-11-03T04:59:12.747Z,6.05
2022-11-03T05:01:42.531Z,6.25
2022-11-03T05:04:14.393Z,4.53
2022-11-03T05:06:43.117Z,3.88
2022-11-03T05:09:16.872Z,4.35
2022-11-03T05:11:47.181Z,4.43
2022-11-03T05:14:17.898Z,4.88
2022-11-03T05:16:47.749Z,5.00
2022-11-03T05:19:22.055Z,4.18
2022-11-03T05:21:51.524Z,4.32
2022-11-03T05:24:22.271Z,4.95
2022-11-03T05:26:51.026Z,3.15
2022-11-03T05:29:21.390Z,4.32
2022-11-03T05:31:52.976Z,3.80
2022-11-03T05:34:36.541Z,4.20
2022-11-03T05:37:26.476Z,4.50
2022-11-03T05:39:58.725Z,4.55
2022-11-03T05:42:32.690Z,3.40
2022-11-03T05:45:01.842Z,5.13
2022-11-03T05:47:36.669Z,3.72
2022-11-03T05:50:16.389Z,3.75
2022-11-03T05:52:46.450Z,3.80
2022-11-03T05:55:30.774Z,5.45
2022-11-03T05:58:01.392Z,4.20
2022-11-03T06:00:32.739Z,4.20
2022-11-03T06:03:02.764Z,4.03
2022-11-03T06:05:33.514Z,4.55
2022-11-03T06:08:04.395Z,4.50
2022-11-03T06:10:35.685Z,4.82
2022-11-03T06:13:09.386Z,4.97
2022-11-03T06:15:46.923Z,3.38
2022-11-03T06:18:20.076Z,3.25
2022-11-03T06:20:52.492Z,3.90
2022-11-03T06:23:26.605Z,4.35
2022-11-03T06:25:56.784Z,3.60
2022-11-03T06:28:28.014Z,5.75
2022-11-03T06:30:56.815Z,4.32
2022-11-03T06:33:28.240Z,4.43
2022-11-03T06:36:00.588Z,3.60
2022-11-03T06:38:31.325Z,4.28
2022-11-03T06:41:00.053Z,5.05
2022-11-03T06:43:48.570Z,5.38
2022-11-03T06:46:23.954Z,5.82
2022-11-03T06:48:54.763Z,4.85
2022-11-03T06:51:25.691Z,5.10
2022-11-03T06:53:55.711Z,4.20
2022-11-03T06:56:26.123Z,4.38
2022-11-03T06:58:57.134Z,5.82
2022-11-03T07:01:30.427Z,4.90
2022-11-03T07:04:02.696Z,4.70
2022-11-03T07:06:33.228Z,5.20
2022-11-03T07:09:04.960Z,5.25
2022-11-03T07:11:36.874Z,4.90
2022-11-03T07:14:13.491Z,3.53
2022-11-03T07:16:45.182Z,3.58
2022-11-03T07:19:19.677Z,4.05
2022-11-03T07:21:50.203Z,3.35
2022-11-03T07:24:23.549Z,3.55
2022-11-03T07:26:57.864Z,4.07
2022-11-03T07:29:29.963Z,4.32
2022-11-03T07:32:00.716Z,4.10
2022-11-03T07:34:33.955Z,3.65
2022-11-03T07:37:02.124Z,4.90
2022-11-03T07:39:36.108Z,4.95
2022-11-03T07:42:12.592Z,4.30
2022-11-03T07:44:42.116Z,4.32
2022-11-03T07:47:14.429Z,4.88
2022-11-03T07:49:47.134Z,5.15
2022-11-03T07:52:17.451Z,4.20
2022-11-03T07:54:45.888Z,4.82
2022-11-03T07:57:20.750Z,5.28
2022-11-03T07:59:51.536Z,5.47
2022-11-03T08:02:32.024Z,4.78
2022-11-03T08:05:02.379Z,4.60
2022-11-03T08:07:31.789Z,4.90
2022-11-03T08:10:00.307Z,4.00
2022-11-03T08:12:29.481Z,4.10
2022-11-03T08:14:57.583Z,4.20
2022-11-03T08:17:25.750Z,3.70
2022-11-03T08:19:54.045Z,4.72
2022-11-03T08:22:26.031Z,5.00
2022-11-03T08:24:54.639Z,5.53
2022-11-03T08:27:22.812Z,5.20
2022-11-03T08:29:51.529Z,5.32
2022-11-03T08:32:19.857Z,5.47
2022-11-03T08:34:48.002Z,7.05
2022-11-03T08:37:17.285Z,7.28
2022-11-03T08:39:46.748Z,6.80
2022-11-03T08:42:15.009Z,4.82
2022-11-03T08:44:43.173Z,4.97
2022-11-03T08:47:11.438Z,4.53
2022-11-03T08:49:42.401Z,4.63
2022-11-03T08:52:10.619Z,4.97
2022-11-03T08:54:38.841Z,4.78
2022-11-03T08:57:08.300Z,4.60
2022-11-03T08:59:36.466Z,4.55
2022-11-03T09:02:04.549Z,5.30
2022-11-03T09:04:32.900Z,4.97
2022-11-03T09:07:00.985Z,5.20
2022-11-03T09:12:18.891Z,5.43
2022-11-03T09:14:47.095Z,5.60
2022-11-03T09:17:15.230Z,6.65
2022-11-03T09:19:43.503Z,5.50
2022-11-03T09:22:11.573Z,5.90
2022-11-03T09:24:39.823Z,7.30
2022-11-03T09:27:07.950Z,6.03
2022-11-03T09:29:58.889Z,6.05
2022-11-03T09:32:25.740Z,5.82
2022-11-03T09:34:59.403Z,6.72
2022-11-03T09:37:27.662Z,5.95
2022-11-03T09:39:55.831Z,6.30
2022-11-03T09:42:24.515Z,5.45
2022-11-03T09:44:56.252Z,5.30
2022-11-03T09:47:27.043Z,5.13
2022-11-03T09:50:05.666Z,5.88
2022-11-03T09:52:36.870Z,5.75
2022-11-03T09:55:14.211Z,6.50
2022-11-03T09:57:43.149Z,6.68
2022-11-03T10:00:19.669Z,6.05
2022-11-03T10:02:49.122Z,7.20
2022-11-03T10:05:21.825Z,7.80
2022-11-03T10:07:50.810Z,7.25
2022-11-03T10:10:21.538Z,7.05
2022-11-03T10:12:52.074Z,5.70
2022-11-03T10:15:24.783Z,6.20
2022-11-03T10:17:53.326Z,6.53
2022-11-03T10:20:23.470Z,6.82
2022-11-03T10:22:54.423Z,5.22
2022-11-03T10:25:42.737Z,5.95
2022-11-03T10:28:19.935Z,5.72
2022-11-03T10:31:11.765Z,5.80
2022-11-03T10:33:42.774Z,5.82
2022-11-03T10:36:25.207Z,6.03
2022-11-03T10:38:53.854Z,6.25
2022-11-03T10:41:23.858Z,6.10
2022-11-03T10:44:08.084Z,6.53
2022-11-03T10:46:54.485Z,6.32
2022-11-03T10:49:22.867Z,6.43
2022-11-03T10:51:52.900Z,5.80
2022-11-03T10:54:23.091Z,5.15
2022-11-03T10:56:52.383Z,5.57
2022-11-03T10:59:22.623Z,5.50
2022-11-03T11:01:52.553Z,5.65
2022-11-03T11:04:21.999Z,5.90
2022-11-03T11:06:50.413Z,5.75
2022-11-03T11:09:25.599Z,5.85
2022-11-03T11:12:04.948Z,7.07
2022-11-03T11:14:39.371Z,4.97
2022-11-03T11:17:45.779Z,7.63
2022-11-03T11:20:37.886Z,6.35
2022-11-03T11:23:49.272Z,6.25
2022-11-03T11:26:32.108Z,6.38
2022-11-03T11:29:41.704Z,6.00
2022-11-03T11:32:52.628Z,5.40
2022-11-03T11:36:06.444Z,6.07
2022-11-03T11:39:03.847Z,4.40
2022-11-03T11:42:10.518Z,5.20
2022-11-03T11:44:57.934Z,4.85
2022-11-03T11:47:46.456Z,4.85
2022-11-03T11:50:29.810Z,5.00
2022-11-03T11:53:13.877Z,5.03
2022-11-03T11:55:46.750Z,4.70
2022-11-03T11:58:28.140Z,4.65
2022-11-03T12:01:01.619Z,5.40
2022-11-03T12:03:40.288Z,5.68
2022-11-03T12:06:09.898Z,4.30
2022-11-03T12:08:38.112Z,5.63
2022-11-03T12:11:46.026Z,4.85
2022-11-03T12:14:25.910Z,5.25
2022-11-03T12:16:55.080Z,5.25
2022-11-03T12:19:36.775Z,4.72
2022-11-03T12:22:06.394Z,4.68
2022-11-03T12:24:40.843Z,5.53
2022-11-03T12:27:40.644Z,6.55
2022-11-03T12:30:15.223Z,4.82
2022-11-03T12:32:43.385Z,3.95
2022-11-03T12:35:13.641Z,4.20
2022-11-03T12:37:42.200Z,4.20
2022-11-03T12:40:12.727Z,5.00
2022-11-03T12:42:42.673Z,4.00
2022-11-03T12:45:13.665Z,4.25
2022-11-03T12:47:49.051Z,4.50
2022-11-03T12:50:17.802Z,4.30
2022-11-03T12:52:46.456Z,4.15
2022-11-03T12:55:14.938Z,3.50
2022-11-03T12:57:45.851Z,4.20
2022-11-03T13:00:15.132Z,3.15
2022-11-03T13:02:43.460Z,3.60
2022-11-03T13:05:15.423Z,3.60
2022-11-03T13:07:43.785Z,3.30
2022-11-03T13:10:12.342Z,3.00
2022-11-03T13:12:41.640Z,2.75
2022-11-03T13:15:13.638Z,3.25
2022-11-03T13:20:37.328Z,3.85
2022-11-03T13:23:08.750Z,3.53
2022-11-03T13:25:37.219Z,4.53
2022-11-03T13:28:05.836Z,3.60
2022-11-03T13:30:35.308Z,3.15
2022-11-03T13:33:03.497Z,4.10
2022-11-03T13:35:31.711Z,4.70
2022-11-03T13:37:59.903Z,3.70
2022-11-03T13:43:18.834Z,4.45
2022-11-03T13:45:48.356Z,3.90
2022-11-03T13:51:07.458Z,5.32
2022-11-03T13:56:23.913Z,3.92
2022-11-03T14:01:45.873Z,4.68
2022-11-03T14:07:02.744Z,3.85
2022-11-03T14:09:30.997Z,5.75
2022-11-03T14:12:16.804Z,4.60
2022-11-03T14:14:45.333Z,4.53
2022-11-03T14:17:14.797Z,5.22
2022-11-03T14:19:47.265Z,4.32
2022-11-03T14:22:18.149Z,4.93
2022-11-03T14:24:46.381Z,4.57
2022-11-03T14:27:15.808Z,4.57
2022-11-03T14:29:58.332Z,5.15
2022-11-03T14:32:28.007Z,3.65
2022-11-03T14:34:56.536Z,4.30
2022-11-03T14:37:25.791Z,4.32
2022-11-03T14:39:53.995Z,4.13
2022-11-03T14:42:21.466Z,4.70
2022-11-03T14:44:49.749Z,4.45
2022-11-03T14:47:21.501Z,4.20
2022-11-03T14:49:51.100Z,5.00
2022-11-03T14:52:19.903Z,4.10
2022-11-03T14:54:48.380Z,5.20
2022-11-03T14:57:28.646Z,7.53
2022-11-03T14:59:56.966Z,4.65
2022-11-03T15:02:25.141Z,4.53
2022-11-03T15:04:55.122Z,6.10
2022-11-03T15:07:23.340Z,4.40
2022-11-03T15:09:51.777Z,5.63
2022-11-03T15:12:19.967Z,5.22
2022-11-03T15:14:51.138Z,4.50
2022-11-03T15:17:19.359Z,5.35
2022-11-03T15:19:47.639Z,4.65
2022-11-03T15:22:18.103Z,4.28
2022-11-03T15:27:34.841Z,4.68
2022-11-03T15:30:03.090Z,4.10
2022-11-03T15:32:36.256Z,4.78
2022-11-03T15:35:04.994Z,5.43
2022-11-03T15:37:34.646Z,4.82
2022-11-03T15:40:02.722Z,3.90
2022-11-03T15:42:30.972Z,5.78
2022-11-03T15:44:59.264Z,4.78
2022-11-03T15:47:27.541Z,3.65
2022-11-03T15:49:55.584Z,5.15
2022-11-03T15:52:23.699Z,4.28
2022-11-03T15:54:53.349Z,4.38
2022-11-03T15:57:21.432Z,3.83
2022-11-03T15:59:57.771Z,4.70
2022-11-03T16:02:40.912Z,5.05
2022-11-03T16:05:10.966Z,4.40
2022-11-03T16:07:39.001Z,4.57
2022-11-03T16:10:09.728Z,4.57
2022-11-03T16:12:38.150Z,4.22
2022-11-03T16:15:07.384Z,5.28
2022-11-03T16:17:35.647Z,6.32
2022-11-03T16:20:03.897Z,6.80
2022-11-03T16:22:32.298Z,5.35
2022-11-03T16:25:00.559Z,4.35
2022-11-03T16:27:30.212Z,4.95
2022-11-03T16:29:58.224Z,4.03
2022-11-03T16:32:26.553Z,4.45
2022-11-03T16:34:54.561Z,3.83
2022-11-03T16:37:23.199Z,4.10
2022-11-03T16:39:51.446Z,3.95
2022-11-03T16:42:19.519Z,4.50
2022-11-03T16:44:49.015Z,4.03
2022-11-03T16:47:17.239Z,4.75
2022-11-03T16:49:45.774Z,4.45
2022-11-03T16:52:14.204Z,4.13
2022-11-03T16:54:42.323Z,3.70
2022-11-03T16:57:10.549Z,4.90
2022-11-03T16:59:39.429Z,4.40
2022-11-03T17:02:15.062Z,4.75
2022-11-03T17:04:44.793Z,5.25
2022-11-03T17:07:12.827Z,5.32
2022-11-03T17:09:41.056Z,5.28
2022-11-03T17:12:09.364Z,5.00
2022-11-03T17:14:37.392Z,4.75
2022-11-03T17:17:05.589Z,5.20
2022-11-03T17:19:35.030Z,4.68
2022-11-03T17:22:03.294Z,5.40
2022-11-03T17:24:31.306Z,5.35
2022-11-03T17:27:01.609Z,4.68
2022-11-03T17:29:35.614Z,5.75
2022-11-03T17:32:06.977Z,4.63
2022-11-03T17:34:36.598Z,6.10
2022-11-03T17:37:05.475Z,5.15
2022-11-03T17:39:37.132Z,5.00
2022-11-03T17:42:16.694Z,4.50
2022-11-03T17:44:45.369Z,4.60
2022-11-03T17:47:13.816Z,5.80
2022-11-03T17:49:43.627Z,4.63
2022-11-03T17:52:26.791Z,4.45
2022-11-03T17:54:58.302Z,4.68
2022-11-03T17:57:27.445Z,5.00
2022-11-03T17:59:57.385Z,4.22
2022-11-03T18:02:27.914Z,4.47
2022-11-03T18:05:21.475Z,5.25
2022-11-03T18:07:50.350Z,4.38
2022-11-03T18:10:18.557Z,5.35
2022-11-03T18:13:07.169Z,4.93
2022-11-03T18:15:38.280Z,5.30
2022-11-03T18:18:13.893Z,4.68
2022-11-03T18:20:52.854Z,5.18
2022-11-03T18:23:23.653Z,4.63
2022-11-03T18:25:52.547Z,4.90
2022-11-03T18:28:21.142Z,4.38
2022-11-03T18:30:52.288Z,4.20
2022-11-03T18:33:24.257Z,5.60
2022-11-03T18:35:54.593Z,4.40
2022-11-03T18:38:24.869Z,4.80
2022-11-03T18:40:53.654Z,4.63
2022-11-03T18:43:23.565Z,4.82
2022-11-03T18:45:52.954Z,5.22
2022-11-03T18:48:20.983Z,4.55
2022-11-03T18:50:51.147Z,5.30
2022-11-03T18:53:23.193Z,5.40
2022-11-03T18:55:51.938Z,5.20
2022-11-03T18:58:23.027Z,5.05
2022-11-03T19:00:51.307Z,5.40
2022-11-03T19:03:22.592Z,5.75
2022-11-03T19:05:53.802Z,6.50
2022-11-03T19:08:27.075Z,5.78
2022-11-03T19:10:56.886Z,5.55
2022-11-03T19:13:28.619Z,5.85
2022-11-03T19:15:58.247Z,5.25
2022-11-03T19:18:28.261Z,4.65
2022-11-03T19:20:56.658Z,5.90
2022-11-03T19:23:26.139Z,5.20
2022-11-03T19:25:58.906Z,6.45
2022-11-03T19:28:29.850Z,5.03
2022-11-03T19:30:59.059Z,5.82
2022-11-03T19:33:30.706Z,4.90
2022-11-03T19:35:59.175Z,5.28
2022-11-03T19:38:28.653Z,5.80
2022-11-03T19:41:14.397Z,5.78
2022-11-03T19:43:42.506Z,5.82
2022-11-03T19:46:18.729Z,7.30
2022-11-03T19:48:46.853Z,5.47
2022-11-03T19:51:15.072Z,6.22
2022-11-03T19:53:47.250Z,6.63
2022-11-03T19:56:31.216Z,5.95
2022-11-03T19:59:03.757Z,5.78
2022-11-03T20:01:32.264Z,5.90
2022-11-03T20:04:00.402Z,5.22
2022-11-03T20:06:28.791Z,6.18
2022-11-03T20:08:58.663Z,5.65
2022-11-03T20:11:27.175Z,5.40
2022-11-03T20:13:55.659Z,5.95
2022-11-03T20:16:26.665Z,5.72
2022-11-03T20:18:55.057Z,6.47
2022-11-03T20:21:24.152Z,8.02
2022-11-03T20:23:53.119Z,7.20
2022-11-03T20:26:24.670Z,7.13
2022-11-03T20:28:55.203Z,7.00
2022-11-03T20:31:23.654Z,7.53
2022-11-03T20:33:51.888Z,7.65
2022-11-03T20:36:24.396Z,8.35
2022-11-03T20:38:59.228Z,7.80
2022-11-03T20:41:31.578Z,7.47
2022-11-03T20:44:00.209Z,8.45
2022-11-03T20:46:30.325Z,7.93
2022-11-03T20:49:06.258Z,7.90
2022-11-03T20:51:36.474Z,9.10
2022-11-03T20:54:13.519Z,8.15
2022-11-03T20:56:43.345Z,6.88
2022-11-03T20:59:13.559Z,8.20
2022-11-03T21:01:42.709Z,6.68
2022-11-03T21:04:15.588Z,5.07
2022-11-03T21:06:43.980Z,5.03
2022-11-03T21:09:13.548Z,4.20
2022-11-03T21:11:43.563Z,4.13
2022-11-03T21:14:16.961Z,4.15
2022-11-03T21:17:02.586Z,3.08
2022-11-03T21:19:50.575Z,2.67
2022-11-03T21:25:13.578Z,3.08
2022-11-03T21:27:43.286Z,2.95
2022-11-03T21:30:12.474Z,4.25
2022-11-03T21:32:41.005Z,3.72
2022-11-03T21:35:14.777Z,3.33
2022-11-03T21:37:43.230Z,3.80
2022-11-03T21:40:12.889Z,2.97
2022-11-03T21:42:59.854Z,3.30
2022-11-03T21:45:28.379Z,4.03
2022-11-03T21:48:22.699Z,3.95
2022-11-03T21:50:51.239Z,3.30
2022-11-03T21:53:19.603Z,3.45
2022-11-03T21:55:48.884Z,2.65
2022-11-03T21:58:18.322Z,3.28
2022-11-03T22:00:47.340Z,2.78
2022-11-03T22:03:15.562Z,2.67
2022-11-03T22:05:43.939Z,2.00
2022-11-03T22:08:12.194Z,2.50
2022-11-03T22:10:40.895Z,2.78
2022-11-03T22:13:09.746Z,2.63
2022-11-03T22:15:57.201Z,2.15
2022-11-03T22:18:48.039Z,1.85
2022-11-03T22:21:33.443Z,2.15
2022-11-03T22:24:18.833Z,1.60
2022-11-03T22:26:59.872Z,1.45
2022-11-03T22:29:45.576Z,1.33
2022-11-03T22:32:16.577Z,1.10
2022-11-03T22:35:02.297Z,1.10
2022-11-03T22:40:15.560Z,1.00
2022-11-03T22:43:00.980Z,1.25
2022-11-03T22:45:46.490Z,0.95
2022-11-03T22:48:16.021Z,1.13
2022-11-03T22:50:44.735Z,0.90
2022-11-03T22:53:30.410Z,1.13
2022-11-03T22:56:01.534Z,1.08
2022-11-03T22:58:30.862Z,1.13
2022-11-03T23:01:03.574Z,0.80
2022-11-03T23:03:34.322Z,1.20
2022-11-03T23:06:03.535Z,0.80
2022-11-03T23:08:33.086Z,1.02
2022-11-03T23:11:05.410Z,0.93
2022-11-03T23:13:33.732Z,0.82
2022-11-03T23:16:02.139Z,0.75
2022-11-03T23:18:48.055Z,1.00
2022-11-03T23:21:17.778Z,0.95
2022-11-03T23:24:03.196Z,1.30
2022-11-03T23:26:31.469Z,0.80
2022-11-03T23:28:59.459Z,1.00
2022-11-03T23:31:27.680Z,1.02
2022-11-03T23:33:55.928Z,1.00
2022-11-03T23:36:25.610Z,1.10
2022-11-03T23:38:53.930Z,1.13
2022-11-03T23:41:22.672Z,1.00
2022-11-03T23:43:51.514Z,1.40
2022-11-03T23:46:40.335Z,1.02
2022-11-03T23:49:08.846Z,1.73
2022-11-03T23:51:39.335Z,0.90
2022-11-03T23:54:09.881Z,1.20
2022-11-03T23:56:59.549Z,1.13
2022-11-03T23:59:29.015Z,1.10
